sensor_id;sensor_type;location;lat;lon;timestamp;P1;durP1;ratioP1;P2;durP2;ratioP2
51746;SDS011;37825;40.088;18.302;2024-01-10T08:26:37;23.40;;;17.23;;
51746;SDS011;37825;40.088;18.302;2024-01-10T08:29:07;17.38;;;13.57;;
51746;SDS011;37825;40.088;18.302;2024-01-10T08:31:36;14.80;;;12.67;;
51746;SDS011;37825;40.088;18.302;2024-01-10T08:34:06;14.13;;;11.47;;
51746;SDS011;37825;40.088;18.302;2024-01-10T08:36:35;19.97;;;13.17;;
51746;SDS011;37825;40.088;18.302;2024-01-10T08:39:05;15.67;;;13.50;;
51746;SDS011;37825;40.088;18.302;2024-01-10T08:41:34;17.43;;;12.97;;
51746;SDS011;37825;40.088;18.302;2024-01-10T08:44:11;18.30;;;10.83;;
51746;SDS011;37825;40.088;18.302;2024-01-10T08:46:41;16.38;;;11.45;;
51746;SDS011;37825;40.088;18.302;2024-01-10T08:49:10;11.17;;;9.43;;
51746;SDS011;37825;40.088;18.302;2024-01-10T08:51:40;12.37;;;9.90;;
51746;SDS011;37825;40.088;18.302;2024-01-10T08:54:11;8.25;;;7.18;;
51746;SDS011;37825;40.088;18.302;2024-01-10T08:56:44;17.27;;;8.43;;
51746;SDS011;37825;40.088;18.302;2024-01-10T08:59:15;15.47;;;8.37;;
51746;SDS011;37825;40.088;18.302;2024-01-10T09:04:14;13.17;;;8.40;;
51746;SDS011;37825;40.088;18.302;2024-01-10T09:06:43;10.70;;;6.90;;
51746;SDS011;37825;40.088;18.302;2024-01-10T09:09:13;12.40;;;7.85;;
51746;SDS011;37825;40.088;18.302;2024-01-10T09:11:42;13.65;;;7.25;;
51746;SDS011;37825;40.088;18.302;2024-01-10T09:14:12;14.75;;;7.15;;
51746;SDS011;37825;40.088;18.302;2024-01-10T09:16:43;8.50;;;7.10;;
51746;SDS011;37825;40.088;18.302;2024-01-10T09:19:12;9.73;;;7.30;;
51746;SDS011;37825;40.088;18.302;2024-01-10T09:21:42;13.33;;;8.67;;
51746;SDS011;37825;40.088;18.302;2024-01-10T09:24:12;11.80;;;9.20;;
51746;SDS011;37825;40.088;18.302;2024-01-10T09:26:44;9.35;;;6.18;;
51746;SDS011;37825;40.088;18.302;2024-01-10T09:29:14;9.70;;;6.70;;
51746;SDS011;37825;40.088;18.302;2024-01-10T09:31:45;8.00;;;4.93;;
51746;SDS011;37825;40.088;18.302;2024-01-10T09:34:14;9.13;;;5.18;;
51746;SDS011;37825;40.088;18.302;2024-01-10T09:36:44;6.67;;;4.77;;
51746;SDS011;37825;40.088;18.302;2024-01-10T09:39:13;10.17;;;5.30;;
51746;SDS011;37825;40.088;18.302;2024-01-10T09:41:45;7.80;;;5.40;;
51746;SDS011;37825;40.088;18.302;2024-01-10T09:44:17;8.70;;;5.00;;
51746;SDS011;37825;40.088;18.302;2024-01-10T09:46:51;11.10;;;7.40;;
51746;SDS011;37825;40.088;18.302;2024-01-10T09:49:20;6.90;;;5.80;;
51746;SDS011;37825;40.088;18.302;2024-01-10T09:51:50;6.20;;;5.00;;
51746;SDS011;37825;40.088;18.302;2024-01-10T09:54:22;9.40;;;4.90;;
51746;SDS011;37825;40.088;18.302;2024-01-10T09:59:22;18.90;;;7.90;;
51746;SDS011;37825;40.088;18.302;2024-01-10T10:01:54;20.10;;;8.50;;
51746;SDS011;37825;40.088;18.302;2024-01-10T10:04:27;10.00;;;5.30;;
51746;SDS011;37825;40.088;18.302;2024-01-10T10:07:00;16.52;;;8.90;;
51746;SDS011;37825;40.088;18.302;2024-01-10T10:09:30;8.80;;;5.00;;
51746;SDS011;37825;40.088;18.302;2024-01-10T10:12:00;15.30;;;6.00;;
51746;SDS011;37825;40.088;18.302;2024-01-10T10:14:29;11.80;;;5.90;;
51746;SDS011;37825;40.088;18.302;2024-01-10T10:19:45;6.40;;;4.80;;
51746;SDS011;37825;40.088;18.302;2024-01-10T10:22:15;8.57;;;5.10;;
51746;SDS011;37825;40.088;18.302;2024-01-10T10:24:47;3.80;;;3.50;;
51746;SDS011;37825;40.088;18.302;2024-01-10T10:27:17;5.10;;;4.60;;
51746;SDS011;37825;40.088;18.302;2024-01-10T10:29:46;6.70;;;4.20;;
51746;SDS011;37825;40.088;18.302;2024-01-10T10:32:16;6.03;;;4.23;;
51746;SDS011;37825;40.088;18.302;2024-01-10T10:34:47;4.40;;;3.20;;
51746;SDS011;37825;40.088;18.302;2024-01-10T10:37:17;5.47;;;4.50;;
51746;SDS011;37825;40.088;18.302;2024-01-10T10:39:47;6.60;;;4.30;;
51746;SDS011;37825;40.088;18.302;2024-01-10T10:42:16;6.70;;;4.70;;
51746;SDS011;37825;40.088;18.302;2024-01-10T10:44:48;4.22;;;3.55;;
51746;SDS011;37825;40.088;18.302;2024-01-10T10:47:19;5.22;;;4.35;;
51746;SDS011;37825;40.088;18.302;2024-01-10T10:49:51;7.00;;;5.90;;
51746;SDS011;37825;40.088;18.302;2024-01-10T10:52:22;5.40;;;4.90;;
51746;SDS011;37825;40.088;18.302;2024-01-10T10:54:53;12.00;;;8.43;;
51746;SDS011;37825;40.088;18.302;2024-01-10T10:59:54;10.40;;;5.20;;
51746;SDS011;37825;40.088;18.302;2024-01-10T11:02:24;6.00;;;4.80;;
51746;SDS011;37825;40.088;18.302;2024-01-10T11:04:56;5.10;;;4.60;;
51746;SDS011;37825;40.088;18.302;2024-01-10T11:07:26;7.07;;;4.78;;
51746;SDS011;37825;40.088;18.302;2024-01-10T11:09:57;9.23;;;6.75;;
51746;SDS011;37825;40.088;18.302;2024-01-10T11:12:33;6.82;;;6.13;;
51746;SDS011;37825;40.088;18.302;2024-01-10T11:15:20;23.53;;;16.63;;
51746;SDS011;37825;40.088;18.302;2024-01-10T11:17:57;11.20;;;9.20;;
51746;SDS011;37825;40.088;18.302;2024-01-10T11:20:39;10.40;;;8.20;;
51746;SDS011;37825;40.088;18.302;2024-01-10T11:26:01;18.60;;;16.70;;
51746;SDS011;37825;40.088;18.302;2024-01-10T11:28:31;17.25;;;13.38;;
51746;SDS011;37825;40.088;18.302;2024-01-10T11:31:01;30.17;;;24.00;;
51746;SDS011;37825;40.088;18.302;2024-01-10T11:33:30;18.90;;;15.40;;
51746;SDS011;37825;40.088;18.302;2024-01-10T11:36:23;8.70;;;7.50;;
51746;SDS011;37825;40.088;18.302;2024-01-10T11:38:54;8.20;;;6.37;;
51746;SDS011;37825;40.088;18.302;2024-01-10T11:41:24;8.60;;;5.70;;
51746;SDS011;37825;40.088;18.302;2024-01-10T11:46:46;4.80;;;4.30;;
51746;SDS011;37825;40.088;18.302;2024-01-10T11:49:16;4.70;;;3.75;;
51746;SDS011;37825;40.088;18.302;2024-01-10T11:51:47;4.13;;;3.73;;
51746;SDS011;37825;40.088;18.302;2024-01-10T11:57:01;11.60;;;10.40;;
51746;SDS011;37825;40.088;18.302;2024-01-10T11:59:31;5.10;;;4.60;;
51746;SDS011;37825;40.088;18.302;2024-01-10T12:02:01;6.60;;;4.60;;
51746;SDS011;37825;40.088;18.302;2024-01-10T12:04:31;5.30;;;4.30;;
51746;SDS011;37825;40.088;18.302;2024-01-10T12:07:06;6.00;;;4.30;;
51746;SDS011;37825;40.088;18.302;2024-01-10T12:09:36;8.23;;;4.70;;
51746;SDS011;37825;40.088;18.302;2024-01-10T12:12:05;5.83;;;4.37;;
51746;SDS011;37825;40.088;18.302;2024-01-10T12:14:35;5.40;;;4.90;;
51746;SDS011;37825;40.088;18.302;2024-01-10T12:17:05;7.33;;;4.87;;
51746;SDS011;37825;40.088;18.302;2024-01-10T12:19:35;7.23;;;5.87;;
51746;SDS011;37825;40.088;18.302;2024-01-10T12:22:06;9.40;;;7.40;;
51746;SDS011;37825;40.088;18.302;2024-01-10T12:24:41;5.20;;;4.10;;
51746;SDS011;37825;40.088;18.302;2024-01-10T12:27:12;10.00;;;4.90;;
51746;SDS011;37825;40.088;18.302;2024-01-10T12:29:41;4.90;;;4.40;;
51746;SDS011;37825;40.088;18.302;2024-01-10T12:32:11;6.40;;;5.10;;
51746;SDS011;37825;40.088;18.302;2024-01-10T12:34:40;11.10;;;8.00;;
51746;SDS011;37825;40.088;18.302;2024-01-10T12:37:11;10.10;;;7.70;;
51746;SDS011;37825;40.088;18.302;2024-01-10T12:39:41;13.30;;;9.43;;
51746;SDS011;37825;40.088;18.302;2024-01-10T12:42:10;8.50;;;7.20;;
51746;SDS011;37825;40.088;18.302;2024-01-10T12:44:43;10.35;;;9.30;;
51746;SDS011;37825;40.088;18.302;2024-01-10T12:47:17;8.50;;;6.97;;
51746;SDS011;37825;40.088;18.302;2024-01-10T12:49:48;9.90;;;8.50;;
51746;SDS011;37825;40.088;18.302;2024-01-10T12:52:19;8.30;;;5.70;;
51746;SDS011;37825;40.088;18.302;2024-01-10T12:54:49;7.30;;;6.05;;
51746;SDS011;37825;40.088;18.302;2024-01-10T12:57:19;6.00;;;5.40;;
51746;SDS011;37825;40.088;18.302;2024-01-10T12:59:52;8.20;;;6.20;;
51746;SDS011;37825;40.088;18.302;2024-01-10T13:02:21;7.00;;;5.20;;
51746;SDS011;37825;40.088;18.302;2024-01-10T13:04:51;4.70;;;4.30;;
51746;SDS011;37825;40.088;18.302;2024-01-10T13:07:21;6.70;;;6.00;;
51746;SDS011;37825;40.088;18.302;2024-01-10T13:09:51;8.15;;;6.40;;
51746;SDS011;37825;40.088;18.302;2024-01-10T13:12:23;9.90;;;4.90;;
51746;SDS011;37825;40.088;18.302;2024-01-10T13:14:53;5.90;;;5.03;;
51746;SDS011;37825;40.088;18.302;2024-01-10T13:17:23;6.30;;;5.20;;
51746;SDS011;37825;40.088;18.302;2024-01-10T13:19:52;7.50;;;5.10;;
51746;SDS011;37825;40.088;18.302;2024-01-10T13:22:23;6.60;;;6.00;;
51746;SDS011;37825;40.088;18.302;2024-01-10T13:24:52;6.20;;;5.57;;
51746;SDS011;37825;40.088;18.302;2024-01-10T13:27:22;7.60;;;6.23;;
51746;SDS011;37825;40.088;18.302;2024-01-10T13:29:51;7.27;;;6.57;;
51746;SDS011;37825;40.088;18.302;2024-01-10T13:32:21;5.90;;;5.00;;
51746;SDS011;37825;40.088;18.302;2024-01-10T13:34:53;5.03;;;4.38;;
51746;SDS011;37825;40.088;18.302;2024-01-10T13:37:24;8.20;;;6.00;;
51746;SDS011;37825;40.088;18.302;2024-01-10T13:39:56;11.20;;;7.70;;
51746;SDS011;37825;40.088;18.302;2024-01-10T13:42:26;8.50;;;7.60;;
51746;SDS011;37825;40.088;18.302;2024-01-10T13:44:56;9.70;;;8.00;;
51746;SDS011;37825;40.088;18.302;2024-01-10T13:47:25;9.97;;;8.17;;
51746;SDS011;37825;40.088;18.302;2024-01-10T13:49:55;8.90;;;5.67;;
51746;SDS011;37825;40.088;18.302;2024-01-10T13:52:25;6.50;;;5.90;;
51746;SDS011;37825;40.088;18.302;2024-01-10T13:54:55;8.05;;;6.18;;
51746;SDS011;37825;40.088;18.302;2024-01-10T13:57:24;6.20;;;5.60;;
51746;SDS011;37825;40.088;18.302;2024-01-10T13:59:55;6.10;;;4.90;;
51746;SDS011;37825;40.088;18.302;2024-01-10T14:02:24;7.50;;;5.20;;
51746;SDS011;37825;40.088;18.302;2024-01-10T14:04:54;6.30;;;5.70;;
51746;SDS011;37825;40.088;18.302;2024-01-10T14:07:26;8.77;;;5.50;;
51746;SDS011;37825;40.088;18.302;2024-01-10T14:09:55;9.13;;;6.93;;
51746;SDS011;37825;40.088;18.302;2024-01-10T14:12:26;8.50;;;6.70;;
51746;SDS011;37825;40.088;18.302;2024-01-10T14:14:57;11.50;;;6.80;;
51746;SDS011;37825;40.088;18.302;2024-01-10T14:17:28;10.82;;;9.82;;
51746;SDS011;37825;40.088;18.302;2024-01-10T14:19:57;6.97;;;5.53;;
51746;SDS011;37825;40.088;18.302;2024-01-10T14:22:28;7.63;;;6.53;;
51746;SDS011;37825;40.088;18.302;2024-01-10T14:24:59;7.07;;;6.47;;
51746;SDS011;37825;40.088;18.302;2024-01-10T14:27:30;8.30;;;5.80;;
51746;SDS011;37825;40.088;18.302;2024-01-10T14:29:59;7.60;;;6.10;;
51746;SDS011;37825;40.088;18.302;2024-01-10T14:32:31;6.35;;;5.75;;
51746;SDS011;37825;40.088;18.302;2024-01-10T14:35:01;6.90;;;6.00;;
51746;SDS011;37825;40.088;18.302;2024-01-10T14:37:32;7.70;;;6.90;;
51746;SDS011;37825;40.088;18.302;2024-01-10T14:40:04;9.00;;;7.50;;
51746;SDS011;37825;40.088;18.302;2024-01-10T14:42:34;10.00;;;7.83;;
51746;SDS011;37825;40.088;18.302;2024-01-10T14:45:04;11.37;;;9.27;;
51746;SDS011;37825;40.088;18.302;2024-01-10T14:47:35;10.40;;;8.50;;
51746;SDS011;37825;40.088;18.302;2024-01-10T14:50:05;12.10;;;10.10;;
51746;SDS011;37825;40.088;18.302;2024-01-10T14:52:37;10.80;;;9.13;;
51746;SDS011;37825;40.088;18.302;2024-01-10T14:55:06;11.45;;;9.48;;
51746;SDS011;37825;40.088;18.302;2024-01-10T14:57:36;9.80;;;8.80;;
51746;SDS011;37825;40.088;18.302;2024-01-10T15:00:06;10.05;;;7.90;;
51746;SDS011;37825;40.088;18.302;2024-01-10T15:02:35;14.07;;;8.23;;
51746;SDS011;37825;40.088;18.302;2024-01-10T15:05:05;10.87;;;8.20;;
51746;SDS011;37825;40.088;18.302;2024-01-10T15:07:36;10.45;;;7.55;;
51746;SDS011;37825;40.088;18.302;2024-01-10T15:12:36;8.57;;;7.63;;
51746;SDS011;37825;40.088;18.302;2024-01-10T15:15:06;8.03;;;6.73;;
51746;SDS011;37825;40.088;18.302;2024-01-10T15:17:36;8.70;;;7.10;;
51746;SDS011;37825;40.088;18.302;2024-01-10T15:20:07;8.60;;;7.60;;
51746;SDS011;37825;40.088;18.302;2024-01-10T15:22:38;10.33;;;7.67;;
51746;SDS011;37825;40.088;18.302;2024-01-10T15:25:08;9.82;;;8.93;;
51746;SDS011;37825;40.088;18.302;2024-01-10T15:27:38;9.50;;;8.07;;
51746;SDS011;37825;40.088;18.302;2024-01-10T15:30:08;10.83;;;9.73;;
51746;SDS011;37825;40.088;18.302;2024-01-10T15:32:38;12.87;;;9.17;;
51746;SDS011;37825;40.088;18.302;2024-01-10T15:35:07;10.33;;;8.80;;
51746;SDS011;37825;40.088;18.302;2024-01-10T15:37:38;9.27;;;7.50;;
51746;SDS011;37825;40.088;18.302;2024-01-10T15:40:09;10.80;;;8.83;;
51746;SDS011;37825;40.088;18.302;2024-01-10T15:42:39;10.87;;;9.87;;
51746;SDS011;37825;40.088;18.302;2024-01-10T15:45:11;12.93;;;11.43;;
51746;SDS011;37825;40.088;18.302;2024-01-10T15:47:41;24.03;;;21.83;;
51746;SDS011;37825;40.088;18.302;2024-01-10T15:50:11;23.93;;;21.37;;
51746;SDS011;37825;40.088;18.302;2024-01-10T15:52:41;25.83;;;23.13;;
51746;SDS011;37825;40.088;18.302;2024-01-10T15:55:11;28.85;;;25.90;;
51746;SDS011;37825;40.088;18.302;2024-01-10T15:57:42;26.30;;;23.53;;
